Bruno, Canada
Current Conditions -  °F | °C
As of 5:00 PM on Saturday 22 Nov 2014 (Local Time) from CYXE Reporting Station
Light Snow Light Snow  
Wind Chill: 13°   Ceiling: 900
Heat Index: 27°   Visibility: 2mi
Dew Point: 25°   Wind: 21mph
Humidity: 93%   Direction: 70°ENE
Pressure: 29.17"   Gusts: 31mph
Location:  52.27°N, 105.52°W
Report Text: CYXE 222300Z 07018G27KT 2SM R09/5500FT/N -SN DRSN BKN009 OVC020 M03/M04 A2917 RMK SC6SC2 /S04/ VIS VRB 1-3 SLP903
Loading
Personal Weather Stations






























Interactive Weather Map New forecast layout! Learn more

10-Day Weather Forecast

Advertisements
Track Severe Weather on mobile